Huvudsida
METAR-TAF:

METAR-TAF

Flygplatser :

Rabah Bitat Annaba Airport

Annaba, Algeriet

latitud: 36-50N, longitud: 007-49E, höjd: 4 m

Aktuellt väderrapport

Denna rapport gjordes för 44 minuter sedan, klockan 13:30 UTC
Vind 14 kt från nord/nordost
Temperatur 28°C
Fuktighet 74%
Tryck 1012 hPa
Sikt: 8000 m

METAR: DABB 241330Z 02014KT 8000 NSC 28/23 Q1012

Tid: 15:14 (14:14 UTC)

Väderprognos

Denna rapport gjordes för 3 timmar och 14 minuter sedan, klockan 11:00 UTC
Prognos gäller från 24 kl. 12 UTC till 25 kl. 12 UTC
Vind 12 kt från nord/nordost
Sikt: 9000 m
Få moln på en höjd av 2000 ft
Blir
från 24 kl. 21 UTC till 24 kl. 23 UTC
Vind 6 kt från ost
Blir
från 25 kl. 06 UTC till 25 kl. 08 UTC
Vind 10 kt från nord/nordost

TAF: DABB 241100Z 2412/2512 02012KT 9000 FEW020 BECMG 2421/2423 09006KT BECMG 2506/2508 02010KT

Aktuella väderrapporter och prognoser från 4000 flygplatser (METAR- och TAF-rapporter).

De tillgängliga stationerna syns som gula och röda prickar på kartan.

För musen över prickarna för att se namnen på stationerna.

Klicka sedan för att få väderrapporter och prognoser.

För att ändra kartan: Klicka på de gröna knapparna med ett svart kors på för att zooma in; den gröna knappen med ett streck på för att zooma ut; eller på de gröna pilarna för angränsande kartor.


METAR-TAF: